Time;durP1;ratioP1;P1;durP2;ratioP2;P2;SDS_P1;SDS_P2;PMS_P1;PMS_P2;Temp;Humidity;BMP_temperature;BMP_pressure;BME280_temperature;BME280_humidity;BME280_pressure;Samples;Min_cycle;Max_cycle;Signal;HPM_P1;HPM_P2
2022/03/01 00:01:18;;;;;;;;;;;;;;;5.44;36.18;102855.22;5052710;28;19943;-68
2022/03/01 00:03:43;;;;;;;;;;;;;;;5.42;36.04;102851.03;5052632;28;19921;-69
2022/03/01 00:06:08;;;;;;;;;;;;;;;5.28;36.16;102854.56;5067620;28;19921;-70
2022/03/01 00:08:33;;;;;;;;;;;;;;;5.24;36.24;102855.94;5034757;28;19991;-68
2022/03/01 00:10:59;;;;;;;;;;;;;;;5.19;36.53;102859.16;5032918;28;20369;-67
2022/03/01 00:13:25;;;;;;;;;;;;;;;5.15;36.58;102857.00;5031563;28;20443;-67
2022/03/01 00:15:50;;;;;;;;;;;;;;;5.01;36.37;102857.75;5031904;28;20016;-69
2022/03/01 00:18:15;;;;;;;;;;;;;;;5.01;36.42;102863.13;5038776;28;19921;-68
2022/03/01 00:20:40;;;;;;;;;;;;;;;5.04;36.56;102854.72;5051770;28;19924;-69
2022/03/01 00:23:06;;;;;;;;;;;;;;;4.72;37.22;102857.63;5052241;28;20031;-68
2022/03/01 00:25:31;;;;;;;;;;;;;;;4.86;36.86;102848.78;5050440;28;19970;-69
2022/03/01 00:27:56;;;;;;;;;;;;;;;5.13;36.36;102848.25;5051677;28;19923;-68
2022/03/01 00:30:21;;;;;;;;;;;;;;;5.22;36.23;102849.88;5051694;28;19952;-67
2022/03/01 00:32:47;;;;;;;;;;;;;;;5.00;36.31;102853.41;5051824;28;19921;-68
2022/03/01 00:35:12;;;;;;;;;;;;;;;4.88;36.54;102853.00;5052795;28;20357;-67
2022/03/01 00:37:37;;;;;;;;;;;;;;;5.01;36.93;102858.59;5052324;28;19921;-67
2022/03/01 00:40:04;;;;;;;;;;;;;;;5.14;35.93;102849.94;5052278;28;19928;-67
2022/03/01 00:42:29;;;;;;;;;;;;;;;5.23;36.00;102854.25;5051874;28;20047;-67
2022/03/01 00:44:54;;;;;;;;;;;;;;;4.79;36.72;102853.22;5052075;28;19956;-68
2022/03/01 00:47:20;;;;;;;;;;;;;;;4.90;36.80;102853.66;5052758;28;19916;-67
2022/03/01 00:49:45;;;;;;;;;;;;;;;5.01;36.50;102852.38;5052073;28;19932;-68
2022/03/01 00:52:10;;;;;;;;;;;;;;;5.03;36.74;102839.59;5051839;28;19931;-67
2022/03/01 00:54:36;;;;;;;;;;;;;;;4.86;36.73;102838.88;5059419;28;19925;-67
2022/03/01 00:57:02;;;;;;;;;;;;;;;4.76;37.45;102835.59;5051743;28;20104;-68
2022/03/01 00:59:27;;;;;;;;;;;;;;;4.78;37.31;102835.41;5053755;28;19917;-67
2022/03/01 01:01:52;;;;;;;;;;;;;;;4.78;37.19;102838.09;5072609;28;19974;-68
2022/03/01 01:04:18;;;;;;;;;;;;;;;4.97;36.83;102837.63;5067890;28;20027;-68
2022/03/01 01:06:43;;;;;;;;;;;;;;;4.36;37.87;102841.16;5068101;28;19935;-67
2022/03/01 01:09:12;;;;;;;;;;;;;;;4.69;37.48;102840.00;5068610;28;20391;-67
2022/03/01 01:11:38;;;;;;;;;;;;;;;4.84;37.26;102838.22;5072094;28;19913;-67
2022/03/01 01:14:03;;;;;;;;;;;;;;;4.86;36.97;102838.88;5067322;28;19967;-69
2022/03/01 01:16:28;;;;;;;;;;;;;;;4.90;37.00;102848.28;5051844;28;20369;-69
2022/03/01 01:18:55;;;;;;;;;;;;;;;4.83;37.42;102854.53;5050065;28;20061;-69
2022/03/01 01:21:21;;;;;;;;;;;;;;;4.92;36.98;102851.63;5066968;28;19924;-69
2022/03/01 01:23:46;;;;;;;;;;;;;;;4.92;36.63;102845.41;5068751;28;19936;-69
2022/03/01 01:26:11;;;;;;;;;;;;;;;4.84;37.17;102853.50;5052288;28;19917;-68
2022/03/01 01:28:37;;;;;;;;;;;;;;;4.98;36.72;102848.22;5051371;28;20015;-68
2022/03/01 01:31:02;;;;;;;;;;;;;;;4.96;36.70;102854.78;5057234;28;19959;-67
2022/03/01 01:33:27;;;;;;;;;;;;;;;4.95;37.04;102845.88;5064765;28;19925;-68
2022/03/01 01:35:53;;;;;;;;;;;;;;;4.97;37.23;102843.00;5068231;28;20383;-67
2022/03/01 01:38:18;;;;;;;;;;;;;;;4.95;37.44;102851.25;5072121;28;20279;-69
2022/03/01 01:40:43;;;;;;;;;;;;;;;4.88;37.30;102850.31;5071512;28;20062;-68
2022/03/01 01:43:08;;;;;;;;;;;;;;;4.99;37.50;102849.03;5071263;28;19927;-69
2022/03/01 01:45:34;;;;;;;;;;;;;;;4.61;38.35;102857.00;5071416;28;20281;-67
2022/03/01 01:48:02;;;;;;;;;;;;;;;4.60;38.66;102849.97;5057676;28;20311;-68
2022/03/01 01:50:29;;;;;;;;;;;;;;;5.09;37.55;102855.00;5051048;28;20007;-68
2022/03/01 01:52:55;;;;;;;;;;;;;;;4.78;38.77;102857.75;5051857;28;19928;-67
2022/03/01 01:55:20;;;;;;;;;;;;;;;4.65;38.60;102859.34;5051851;28;19924;-68
2022/03/01 01:57:46;;;;;;;;;;;;;;;4.60;38.67;102862.56;5051093;28;19920;-68
2022/03/01 02:00:11;;;;;;;;;;;;;;;4.65;38.58;102868.25;5054093;28;19920;-67
2022/03/01 02:02:37;;;;;;;;;;;;;;;4.88;37.92;102877.19;5067936;28;20405;-68
2022/03/01 02:05:02;;;;;;;;;;;;;;;4.97;38.06;102861.81;5062939;28;19920;-67
2022/03/01 02:07:28;;;;;;;;;;;;;;;5.02;37.87;102867.53;5031266;28;19921;-68
2022/03/01 02:09:53;;;;;;;;;;;;;;;5.22;37.71;102864.16;5031370;28;19940;-68
2022/03/01 02:12:18;;;;;;;;;;;;;;;5.08;37.48;102869.50;5050832;28;19924;-68
2022/03/01 02:14:44;;;;;;;;;;;;;;;5.12;37.82;102862.75;5066114;28;19932;-68
2022/03/01 02:17:10;;;;;;;;;;;;;;;5.30;37.50;102861.41;5051415;28;20296;-69
2022/03/01 02:19:35;;;;;;;;;;;;;;;5.00;37.88;102858.78;5054272;28;19921;-68
2022/03/01 02:22:02;;;;;;;;;;;;;;;5.19;38.04;102851.06;5055206;28;19924;-67
2022/03/01 02:24:28;;;;;;;;;;;;;;;5.21;38.33;102843.66;5054668;28;19921;-69
2022/03/01 02:26:54;;;;;;;;;;;;;;;5.35;38.34;102850.09;5054841;28;19921;-68
2022/03/01 02:29:20;;;;;;;;;;;;;;;5.12;38.43;102846.59;5054952;28;19917;-67
2022/03/01 02:31:45;;;;;;;;;;;;;;;5.33;38.35;102847.59;5054670;28;19970;-67
2022/03/01 02:34:10;;;;;;;;;;;;;;;5.31;37.84;102835.34;5054646;28;19982;-67
2022/03/01 02:36:35;;;;;;;;;;;;;;;4.87;38.74;102837.03;5054566;28;20016;-68
2022/03/01 02:39:01;;;;;;;;;;;;;;;5.18;38.05;102835.13;5054503;28;20000;-68
2022/03/01 02:41:26;;;;;;;;;;;;;;;5.23;38.30;102838.09;5054600;28;20008;-67
2022/03/01 02:43:52;;;;;;;;;;;;;;;5.13;37.88;102832.97;5054635;28;19924;-67
2022/03/01 02:46:17;;;;;;;;;;;;;;;5.44;37.33;102841.78;5054534;28;19921;-68
2022/03/01 02:48:42;;;;;;;;;;;;;;;5.40;37.34;102836.94;5054062;28;19970;-69
2022/03/01 02:51:08;;;;;;;;;;;;;;;5.45;37.04;102838.09;5054355;28;19928;-66
2022/03/01 02:53:34;;;;;;;;;;;;;;;5.49;36.93;102841.25;5054192;28;19947;-68
2022/03/01 02:55:59;;;;;;;;;;;;;;;5.39;37.37;102841.50;5054750;28;19921;-69
2022/03/01 02:58:24;;;;;;;;;;;;;;;5.45;37.01;102838.09;5054001;28;19927;-67
2022/03/01 03:00:50;;;;;;;;;;;;;;;5.41;37.03;102831.38;5054318;28;20399;-69
2022/03/01 03:03:15;;;;;;;;;;;;;;;5.31;37.27;102830.81;5054376;28;19967;-69
2022/03/01 03:05:40;;;;;;;;;;;;;;;5.13;37.20;102832.13;5054100;28;20276;-69
2022/03/01 03:08:07;;;;;;;;;;;;;;;5.26;37.20;102825.09;5058895;28;19945;-68
2022/03/01 03:10:33;;;;;;;;;;;;;;;5.23;37.34;102833.56;5054160;28;19928;-67
2022/03/01 03:12:59;;;;;;;;;;;;;;;5.29;37.28;102826.59;5054078;28;19953;-68
2022/03/01 03:15:24;;;;;;;;;;;;;;;4.77;38.24;102826.47;5054146;28;19963;-68
2022/03/01 03:17:49;;;;;;;;;;;;;;;5.34;37.29;102826.91;5054314;28;19921;-67
2022/03/01 03:20:14;;;;;;;;;;;;;;;4.99;37.73;102819.44;5054123;28;20389;-68
2022/03/01 03:22:40;;;;;;;;;;;;;;;5.30;37.36;102821.03;5053893;28;19983;-69
2022/03/01 03:25:05;;;;;;;;;;;;;;;5.49;36.62;102817.00;5068974;28;19943;-68
2022/03/01 03:27:31;;;;;;;;;;;;;;;5.01;37.69;102820.09;5073870;28;20429;-68
2022/03/01 03:29:56;;;;;;;;;;;;;;;5.03;37.63;102815.38;5072521;28;19975;-68
2022/03/01 03:32:21;;;;;;;;;;;;;;;5.45;36.74;102813.00;5074341;28;19920;-66
2022/03/01 03:34:47;;;;;;;;;;;;;;;5.06;37.26;102820.41;5073515;28;19917;-68
2022/03/01 03:37:13;;;;;;;;;;;;;;;5.23;36.55;102808.50;5073581;28;19921;-67
2022/03/01 03:39:38;;;;;;;;;;;;;;;4.73;37.70;102816.28;5066835;28;19975;-68
2022/03/01 03:42:04;;;;;;;;;;;;;;;5.15;36.71;102806.72;5053356;28;19954;-68
2022/03/01 03:44:29;;;;;;;;;;;;;;;5.14;36.75;102806.91;5053184;28;19916;-67
2022/03/01 03:46:54;;;;;;;;;;;;;;;5.24;36.70;102800.22;5053802;28;19930;-68
2022/03/01 03:49:19;;;;;;;;;;;;;;;5.23;36.82;102808.50;5053170;28;20028;-68
2022/03/01 03:51:45;;;;;;;;;;;;;;;5.12;37.12;102804.41;5052828;28;19917;-68
2022/03/01 03:54:10;;;;;;;;;;;;;;;5.25;36.36;102817.22;5052073;28;19935;-67
2022/03/01 03:56:35;;;;;;;;;;;;;;;5.23;36.64;102814.72;5052167;28;20264;-68
2022/03/01 03:59:02;;;;;;;;;;;;;;;5.49;36.17;102814.31;5052618;28;20281;-71
2022/03/01 04:01:27;;;;;;;;;;;;;;;5.14;37.03;102807.75;5052393;28;19921;-67
2022/03/01 04:03:52;;;;;;;;;;;;;;;5.33;36.80;102809.94;5052187;28;20427;-67
2022/03/01 04:06:18;;;;;;;;;;;;;;;5.47;36.26;102814.50;5051991;28;20351;-69
2022/03/01 04:08:43;;;;;;;;;;;;;;;5.19;36.72;102812.56;5067870;28;20396;-69
2022/03/01 04:11:08;;;;;;;;;;;;;;;5.20;36.63;102811.56;5072724;28;19943;-69
2022/03/01 04:13:33;;;;;;;;;;;;;;;4.99;37.26;102814.06;5060396;28;20342;-68
2022/03/01 04:15:58;;;;;;;;;;;;;;;4.94;37.00;102809.25;5052908;28;19920;-69
2022/03/01 04:18:24;;;;;;;;;;;;;;;4.78;37.73;102814.72;5052981;28;19916;-68
2022/03/01 04:20:49;;;;;;;;;;;;;;;4.97;36.95;102813.41;5052656;28;20405;-68
2022/03/01 04:23:15;;;;;;;;;;;;;;;5.18;37.05;102814.41;5052851;28;19913;-68
2022/03/01 04:25:40;;;;;;;;;;;;;;;5.14;36.82;102820.34;5052537;28;20377;-67
2022/03/01 04:28:06;;;;;;;;;;;;;;;4.79;37.71;102818.25;5052618;28;19921;-67
2022/03/01 04:30:31;;;;;;;;;;;;;;;4.69;37.42;102821.19;5052433;28;19947;-68
2022/03/01 04:32:57;;;;;;;;;;;;;;;5.15;36.51;102822.84;5052431;28;19944;-68
2022/03/01 04:35:22;;;;;;;;;;;;;;;4.93;36.92;102822.88;5050186;28;19967;-68
2022/03/01 04:37:47;;;;;;;;;;;;;;;4.90;37.30;102816.00;5047818;28;19909;-69
2022/03/01 04:40:14;;;;;;;;;;;;;;;4.97;36.99;102816.94;5032444;28;19928;-67
2022/03/01 04:42:39;;;;;;;;;;;;;;;5.12;37.00;102817.84;5032280;28;19917;-68
2022/03/01 04:45:09;;;;;;;;;;;;;;;5.44;36.22;102814.00;5032064;28;19921;-69
2022/03/01 04:47:35;;;;;;;;;;;;;;;5.51;35.93;102817.66;5060700;28;19913;-69
2022/03/01 04:50:00;;;;;;;;;;;;;;;5.43;36.36;102818.59;5072752;28;20421;-67
2022/03/01 04:52:25;;;;;;;;;;;;;;;5.44;36.56;102809.47;5072132;28;19924;-67
2022/03/01 04:54:51;;;;;;;;;;;;;;;5.33;36.75;102812.63;5067538;28;20091;-68
2022/03/01 04:57:16;;;;;;;;;;;;;;;5.26;36.90;102806.28;5050425;28;20023;-68
2022/03/01 04:59:41;;;;;;;;;;;;;;;4.91;37.63;102812.28;5068823;28;19933;-67
2022/03/01 05:02:07;;;;;;;;;;;;;;;4.83;37.70;102811.50;5060664;28;20241;-69
2022/03/01 05:04:32;;;;;;;;;;;;;;;4.72;37.91;102807.38;5051686;28;19928;-68
2022/03/01 05:06:57;;;;;;;;;;;;;;;5.11;37.01;102801.88;5051884;28;19981;-68
2022/03/01 05:09:22;;;;;;;;;;;;;;;4.97;37.63;102794.56;5051294;28;19921;-69
2022/03/01 05:11:49;;;;;;;;;;;;;;;5.03;37.35;102786.63;5051521;28;20510;-69
2022/03/01 05:14:14;;;;;;;;;;;;;;;4.90;37.32;102793.63;5052058;28;20003;-68
2022/03/01 05:16:40;;;;;;;;;;;;;;;4.81;37.46;102790.16;5051065;28;19979;-67
2022/03/01 05:19:06;;;;;;;;;;;;;;;5.04;37.50;102792.84;5051953;28;19927;-69
2022/03/01 05:21:32;;;;;;;;;;;;;;;4.66;38.15;102794.63;5050707;28;20440;-68
2022/03/01 05:23:57;;;;;;;;;;;;;;;4.96;37.34;102800.97;5051863;28;20002;-67
2022/03/01 05:26:22;;;;;;;;;;;;;;;4.98;37.00;102796.25;5051956;28;19959;-70
2022/03/01 05:28:47;;;;;;;;;;;;;;;5.08;37.08;102803.09;5052123;28;19920;-68
2022/03/01 05:31:13;;;;;;;;;;;;;;;4.74;37.50;102799.13;5049576;28;19920;-67
2022/03/01 05:33:38;;;;;;;;;;;;;;;4.80;37.34;102795.72;5032841;28;19921;-69
2022/03/01 05:36:03;;;;;;;;;;;;;;;4.73;37.73;102800.97;5031832;28;19928;-68
2022/03/01 05:38:28;;;;;;;;;;;;;;;4.89;37.67;102794.66;5031587;28;19917;-68
2022/03/01 05:40:54;;;;;;;;;;;;;;;4.63;37.82;102778.88;5032061;28;20007;-69
2022/03/01 05:43:19;;;;;;;;;;;;;;;4.67;37.58;102782.03;5031837;28;19967;-68
2022/03/01 05:45:44;;;;;;;;;;;;;;;4.45;38.20;102781.84;5046482;28;19921;-69
2022/03/01 05:48:10;;;;;;;;;;;;;;;4.27;38.78;102775.88;5031974;28;19928;-69
2022/03/01 05:50:35;;;;;;;;;;;;;;;4.77;37.65;102783.47;5031440;28;19964;-68
2022/03/01 05:53:02;;;;;;;;;;;;;;;4.94;37.72;102776.97;5033138;28;20024;-68
2022/03/01 05:55:27;;;;;;;;;;;;;;;4.93;37.23;102777.16;5059394;28;19931;-67
2022/03/01 05:57:52;;;;;;;;;;;;;;;5.02;37.55;102776.91;5075592;28;19920;-68
2022/03/01 06:00:19;;;;;;;;;;;;;;;4.45;38.55;102781.84;5075755;28;19921;-68
2022/03/01 06:02:45;;;;;;;;;;;;;;;4.56;38.12;102780.59;5072770;28;19948;-67
2022/03/01 06:05:17;;;;;;;;;;;;;;;4.60;38.08;102793.50;5056264;28;20345;-68
2022/03/01 06:07:42;;;;;;;;;;;;;;;4.35;38.06;102794.66;5055309;28;19956;-68
2022/03/01 06:10:08;;;;;;;;;;;;;;;4.81;37.91;102794.72;5055293;28;19977;-67
2022/03/01 06:12:34;;;;;;;;;;;;;;;4.52;38.49;102787.31;5054186;28;19925;-67
2022/03/01 06:14:59;;;;;;;;;;;;;;;4.61;38.53;102795.16;5054389;28;19995;-68
2022/03/01 06:17:24;;;;;;;;;;;;;;;5.07;37.13;102795.16;5054693;28;19940;-68
2022/03/01 06:19:49;;;;;;;;;;;;;;;4.92;37.75;102800.50;5060043;28;19950;-67
2022/03/01 06:22:15;;;;;;;;;;;;;;;4.69;38.55;102797.00;5054768;28;19928;-69
2022/03/01 06:24:41;;;;;;;;;;;;;;;4.75;38.96;102790.06;5053591;28;19929;-67
2022/03/01 06:27:07;;;;;;;;;;;;;;;5.07;37.71;102785.25;5054611;28;20419;-68
2022/03/01 06:29:32;;;;;;;;;;;;;;;4.95;37.66;102797.44;5052334;28;19966;-69
2022/03/01 06:31:58;;;;;;;;;;;;;;;4.81;38.09;102800.91;5054128;28;19999;-68
2022/03/01 06:34:23;;;;;;;;;;;;;;;4.63;38.08;102804.91;5054122;28;19925;-68
2022/03/01 06:36:48;;;;;;;;;;;;;;;5.14;37.64;102815.81;5054138;28;19917;-69
2022/03/01 06:39:13;;;;;;;;;;;;;;;5.14;37.65;102807.75;5053326;28;20004;-69
2022/03/01 06:41:39;;;;;;;;;;;;;;;5.29;37.75;102815.84;5054149;28;19943;-68
2022/03/01 06:44:04;;;;;;;;;;;;;;;5.39;37.24;102814.59;5054604;28;19919;-68
2022/03/01 06:46:29;;;;;;;;;;;;;;;5.60;37.22;102821.94;5054151;28;19971;-67
2022/03/01 06:48:54;;;;;;;;;;;;;;;5.55;36.77;102828.91;5052531;28;19928;-68
2022/03/01 06:51:20;;;;;;;;;;;;;;;5.57;36.68;102827.69;5054263;28;19944;-68
2022/03/01 06:53:45;;;;;;;;;;;;;;;5.72;36.73;102825.03;5053193;28;19932;-68
2022/03/01 06:56:10;;;;;;;;;;;;;;;5.54;36.89;102835.31;5054658;28;19956;-68
2022/03/01 06:58:36;;;;;;;;;;;;;;;5.75;36.67;102838.16;5054301;28;19924;-68
2022/03/01 07:01:03;;;;;;;;;;;;;;;5.69;36.77;102841.59;5054419;28;19920;-69
2022/03/01 07:03:28;;;;;;;;;;;;;;;5.70;36.89;102835.16;5053841;28;19974;-67
2022/03/01 07:05:53;;;;;;;;;;;;;;;5.79;36.26;102839.47;5052639;28;19999;-67
2022/03/01 07:08:20;;;;;;;;;;;;;;;5.72;36.43;102849.28;5067029;28;19917;-68
2022/03/01 07:10:46;;;;;;;;;;;;;;;5.82;36.47;102844.47;5064756;28;19921;-68
2022/03/01 07:13:11;;;;;;;;;;;;;;;5.66;36.48;102850.84;5053433;28;19921;-67
2022/03/01 07:15:37;;;;;;;;;;;;;;;5.94;35.80;102853.78;5052874;28;19987;-68
2022/03/01 07:18:03;;;;;;;;;;;;;;;6.12;35.72;102862.34;5052824;28;19923;-67
2022/03/01 07:20:29;;;;;;;;;;;;;;;6.16;35.79;102856.41;5052036;28;19921;-67
2022/03/01 07:22:54;;;;;;;;;;;;;;;5.94;35.64;102859.16;5053496;28;19992;-68
2022/03/01 07:25:19;;;;;;;;;;;;;;;5.98;35.66;102866.69;5039697;28;20028;-68
2022/03/01 07:27:45;;;;;;;;;;;;;;;6.10;35.92;102867.91;5033367;28;19921;-68
2022/03/01 07:30:11;;;;;;;;;;;;;;;6.07;36.06;102862.88;5033639;28;20328;-68
2022/03/01 07:32:36;;;;;;;;;;;;;;;6.05;36.02;102856.00;5033221;28;19959;-67
2022/03/01 07:35:02;;;;;;;;;;;;;;;5.78;36.60;102857.47;5033928;28;20020;-66
2022/03/01 07:37:27;;;;;;;;;;;;;;;6.02;36.76;102851.00;5048483;28;19977;-68
2022/03/01 07:39:55;;;;;;;;;;;;;;;6.08;36.24;102848.41;5033798;28;19928;-69
2022/03/01 07:42:20;;;;;;;;;;;;;;;6.06;36.20;102861.22;5033513;28;19917;-69
2022/03/01 07:44:45;;;;;;;;;;;;;;;6.08;35.93;102858.34;5033183;28;19928;-67
2022/03/01 07:47:11;;;;;;;;;;;;;;;5.82;36.15;102861.47;5033953;28;19901;-71
2022/03/01 07:49:36;;;;;;;;;;;;;;;5.71;36.82;102869.16;5033361;28;20383;-70
2022/03/01 07:52:01;;;;;;;;;;;;;;;5.86;36.98;102862.78;5033153;28;20500;-67
2022/03/01 07:54:27;;;;;;;;;;;;;;;6.38;35.75;102860.81;5034208;28;19988;-67
2022/03/01 07:56:52;;;;;;;;;;;;;;;5.82;36.57;102863.31;5043526;28;19986;-67
2022/03/01 07:59:18;;;;;;;;;;;;;;;5.84;36.84;102863.97;5051130;28;19924;-68
2022/03/01 08:01:43;;;;;;;;;;;;;;;6.02;36.58;102859.06;5050593;28;20384;-67
2022/03/01 08:04:08;;;;;;;;;;;;;;;6.54;35.56;102861.66;5048329;28;19920;-68
2022/03/01 08:06:33;;;;;;;;;;;;;;;6.62;35.76;102856.16;5050874;28;19921;-68
2022/03/01 08:08:59;;;;;;;;;;;;;;;6.55;35.48;102866.00;5046548;28;20011;-68
2022/03/01 08:11:24;;;;;;;;;;;;;;;6.35;36.02;102868.44;5050459;28;19913;-67
2022/03/01 08:13:49;;;;;;;;;;;;;;;6.75;35.50;102880.56;5051205;28;19921;-68
2022/03/01 08:16:15;;;;;;;;;;;;;;;6.64;35.54;102873.81;5049832;28;19925;-67
2022/03/01 08:18:40;;;;;;;;;;;;;;;6.06;36.55;102872.00;5050597;28;20019;-68
2022/03/01 08:21:07;;;;;;;;;;;;;;;6.71;35.70;102871.19;5050727;28;19967;-69
2022/03/01 08:23:32;;;;;;;;;;;;;;;6.82;35.51;102879.63;5051172;28;19992;-69
2022/03/01 08:25:58;;;;;;;;;;;;;;;7.02;34.86;102885.25;5050552;28;20012;-67
2022/03/01 08:28:23;;;;;;;;;;;;;;;7.41;35.09;102871.31;5049289;28;20368;-68
2022/03/01 08:30:49;;;;;;;;;;;;;;;6.86;35.33;102891.72;5049978;28;19921;-68
2022/03/01 08:33:18;;;;;;;;;;;;;;;6.23;36.52;102881.56;5049424;28;19935;-69
2022/03/01 08:35:44;;;;;;;;;;;;;;;7.32;34.99;102891.38;5049844;28;19939;-69
2022/03/01 08:38:09;;;;;;;;;;;;;;;6.65;36.04;102897.06;5050242;28;20330;-69
2022/03/01 08:40:39;;;;;;;;;;;;;;;7.30;34.90;102915.91;5049238;28;20011;-68
2022/03/01 08:43:08;;;;;;;;;;;;;;;7.28;34.88;102906.31;5046534;28;19971;-68
2022/03/01 08:45:33;;;;;;;;;;;;;;;7.58;35.12;102894.34;5049268;28;19967;-66
2022/03/01 08:47:59;;;;;;;;;;;;;;;6.73;36.09;102896.13;5048780;28;19948;-68
2022/03/01 08:50:24;;;;;;;;;;;;;;;6.61;36.19;102889.53;5048842;28;19920;-67
2022/03/01 08:52:50;;;;;;;;;;;;;;;7.00;36.17;102885.44;5050384;28;20019;-67
2022/03/01 08:55:18;;;;;;;;;;;;;;;7.06;35.80;102892.81;5047697;28;21696;-68
2022/03/01 08:57:43;;;;;;;;;;;;;;;7.24;35.43;102886.97;5049323;28;19971;-67
2022/03/01 09:00:10;;;;;;;;;;;;;;;7.21;35.73;102888.19;5046832;28;19979;-69
2022/03/01 09:02:35;;;;;;;;;;;;;;;7.74;34.99;102892.19;5050191;28;19913;-69
2022/03/01 09:05:00;;;;;;;;;;;;;;;7.71;35.02;102889.88;5049885;28;19927;-68
2022/03/01 09:07:26;;;;;;;;;;;;;;;7.69;34.84;102891.94;5050476;28;19920;-68
2022/03/01 09:09:51;;;;;;;;;;;;;;;7.56;34.84;102882.91;5050225;28;19946;-68
2022/03/01 09:12:17;;;;;;;;;;;;;;;6.63;36.93;102896.41;5050310;28;19920;-67
2022/03/01 09:14:42;;;;;;;;;;;;;;;7.59;35.72;102891.44;5049945;28;19929;-69
2022/03/01 09:17:07;;;;;;;;;;;;;;;6.55;37.58;102888.44;5050085;28;20020;-67
2022/03/01 09:19:32;;;;;;;;;;;;;;;7.28;36.82;102882.00;5050255;28;19928;-66
2022/03/01 09:21:58;;;;;;;;;;;;;;;7.69;36.01;102875.72;5049909;28;20015;-68
2022/03/01 09:24:23;;;;;;;;;;;;;;;6.77;37.17;102886.63;5049423;28;20277;-67
2022/03/01 09:26:48;;;;;;;;;;;;;;;7.49;35.67;102888.22;5049034;28;19921;-70
2022/03/01 09:29:14;;;;;;;;;;;;;;;8.18;35.02;102889.16;5049765;28;19982;-68
2022/03/01 09:31:39;;;;;;;;;;;;;;;8.13;34.24;102881.63;5031933;28;20226;-69
2022/03/01 09:34:04;;;;;;;;;;;;;;;7.99;34.83;102890.69;5050025;28;19928;-68
2022/03/01 09:36:29;;;;;;;;;;;;;;;7.27;35.36;102886.56;5049635;28;20363;-67
2022/03/01 09:38:55;;;;;;;;;;;;;;;8.48;33.50;102877.09;5049949;28;19987;-68
2022/03/01 09:41:20;;;;;;;;;;;;;;;7.94;33.64;102884.22;5050422;28;19921;-67
2022/03/01 09:43:45;;;;;;;;;;;;;;;7.68;34.33;102890.25;5049911;28;19921;-67
2022/03/01 09:46:11;;;;;;;;;;;;;;;7.42;34.96;102892.75;5031984;28;19931;-69
2022/03/01 09:48:36;;;;;;;;;;;;;;;7.88;34.27;102896.66;5045655;28;20291;-67
2022/03/01 09:51:03;;;;;;;;;;;;;;;8.04;34.13;102900.91;5049800;28;20016;-67
2022/03/01 09:53:28;;;;;;;;;;;;;;;8.36;34.08;102904.91;5082315;28;19921;-68
2022/03/01 09:55:55;;;;;;;;;;;;;;;8.69;33.46;102900.47;5054601;28;19975;-68
2022/03/01 09:58:20;;;;;;;;;;;;;;;8.64;33.89;102898.38;5065898;28;19962;-68
2022/03/01 10:00:47;;;;;;;;;;;;;;;8.06;35.10;102904.25;5065655;28;20008;-66
2022/03/01 10:03:16;;;;;;;;;;;;;;;8.31;34.72;102891.97;5049548;28;19955;-68
2022/03/01 10:05:42;;;;;;;;;;;;;;;8.72;34.03;102890.06;5049387;28;19921;-67
2022/03/01 10:08:11;;;;;;;;;;;;;;;8.61;33.26;102881.72;5065582;28;20284;-68
2022/03/01 10:10:49;;;;;;;;;;;;;;;8.77;33.63;102893.03;5049300;28;20443;-67
2022/03/01 10:13:21;;;;;;;;;;;;;;;8.49;33.75;102886.88;5062464;28;19920;-68
2022/03/01 10:15:47;;;;;;;;;;;;;;;8.34;33.34;102898.84;5067192;28;19967;-67
2022/03/01 10:18:13;;;;;;;;;;;;;;;8.67;33.21;102900.69;5044782;28;19921;-68
2022/03/01 10:20:41;;;;;;;;;;;;;;;9.39;33.05;102902.75;5066387;28;20396;-67
2022/03/01 10:23:07;;;;;;;;;;;;;;;8.72;33.16;102898.19;5051719;28;19943;-69
2022/03/01 10:25:32;;;;;;;;;;;;;;;9.44;32.34;102889.44;5055438;28;19917;-70
2022/03/01 10:27:58;;;;;;;;;;;;;;;9.22;32.51;102882.50;5067552;28;20407;-66
2022/03/01 10:30:33;;;;;;;;;;;;;;;9.25;32.98;102884.81;5068840;28;20420;-67
2022/03/01 10:33:16;;;;;;;;;;;;;;;9.16;32.55;102886.03;5063628;28;19927;-67
2022/03/01 10:35:43;;;;;;;;;;;;;;;10.43;31.79;102882.88;5066151;28;20348;-69
2022/03/01 10:38:09;;;;;;;;;;;;;;;9.89;31.32;102894.03;5070129;28;20320;-66
2022/03/01 10:40:35;;;;;;;;;;;;;;;10.24;31.20;102887.28;5072482;28;19920;-68
2022/03/01 10:43:09;;;;;;;;;;;;;;;10.21;31.24;102895.03;5056440;28;19921;-68
2022/03/01 10:45:35;;;;;;;;;;;;;;;10.25;30.94;102898.97;5058319;28;20023;-68
2022/03/01 10:48:00;;;;;;;;;;;;;;;10.78;30.25;102897.78;5066039;28;20023;-66
2022/03/01 10:50:25;;;;;;;;;;;;;;;10.05;31.12;102898.19;5071250;28;19920;-67
2022/03/01 10:52:51;;;;;;;;;;;;;;;10.62;30.82;102893.69;5059360;28;19946;-66
2022/03/01 10:55:27;;;;;;;;;;;;;;;10.92;30.71;102903.97;5069222;28;20323;-68
2022/03/01 10:58:21;;;;;;;;;;;;;;;11.15;30.22;102896.94;5072105;28;19917;-67
2022/03/01 11:00:46;;;;;;;;;;;;;;;11.32;29.66;102908.94;5004768;28;19925;-68
2022/03/01 11:03:12;;;;;;;;;;;;;;;11.31;29.90;102896.44;5007702;28;19921;-68
2022/03/01 11:05:38;;;;;;;;;;;;;;;11.33;29.83;102893.47;4990789;28;19914;-66
2022/03/01 11:08:04;;;;;;;;;;;;;;;10.97;29.71;102885.13;4990775;28;20093;-68
2022/03/01 11:10:31;;;;;;;;;;;;;;;11.08;30.08;102882.56;4995429;28;19925;-68
2022/03/01 11:12:58;;;;;;;;;;;;;;;10.85;29.92;102881.44;5000953;28;19928;-67
2022/03/01 11:15:26;;;;;;;;;;;;;;;10.92;29.35;102885.81;4990661;28;20405;-68
2022/03/01 11:17:52;;;;;;;;;;;;;;;11.45;29.33;102889.00;4989875;28;20004;-67
2022/03/01 11:20:30;;;;;;;;;;;;;;;11.25;29.60;102891.03;4990356;28;20052;-66
2022/03/01 11:23:02;;;;;;;;;;;;;;;11.87;28.93;102898.28;4990694;28;20244;-68
2022/03/01 11:25:34;;;;;;;;;;;;;;;11.17;30.45;102888.56;4990521;28;19921;-68
2022/03/01 11:28:01;;;;;;;;;;;;;;;11.28;29.88;102885.97;4989897;28;19961;-67
2022/03/01 11:30:28;;;;;;;;;;;;;;;11.72;29.41;102886.94;4989632;28;19969;-69
2022/03/01 11:32:56;;;;;;;;;;;;;;;12.22;29.54;102888.53;5000057;28;19926;-67
2022/03/01 11:35:23;;;;;;;;;;;;;;;12.29;28.78;102889.28;5005039;28;19933;-67
2022/03/01 11:37:59;;;;;;;;;;;;;;;11.29;29.43;102893.09;5055089;28;19916;-69
2022/03/01 11:40:25;;;;;;;;;;;;;;;11.30;28.70;102893.91;5071227;28;20403;-67
2022/03/01 11:42:50;;;;;;;;;;;;;;;12.01;28.30;102876.19;5052632;28;19917;-68
2022/03/01 11:45:16;;;;;;;;;;;;;;;12.06;27.69;102884.50;5051911;28;19921;-69
2022/03/01 11:47:41;;;;;;;;;;;;;;;12.30;28.64;102875.44;5058218;28;20359;-68
2022/03/01 11:50:12;;;;;;;;;;;;;;;12.33;28.90;102874.16;5071775;28;19952;-67
2022/03/01 11:52:48;;;;;;;;;;;;;;;12.16;28.22;102870.38;5068371;28;19920;-70
2022/03/01 11:55:13;;;;;;;;;;;;;;;12.89;27.63;102873.88;5061031;28;19961;-68
2022/03/01 11:57:38;;;;;;;;;;;;;;;13.15;26.63;102868.91;5051264;28;19963;-68
2022/03/01 12:00:04;;;;;;;;;;;;;;;13.68;26.72;102868.91;5049093;28;20009;-68
2022/03/01 12:02:29;;;;;;;;;;;;;;;13.08;27.42;102870.06;5051207;28;19936;-70
2022/03/01 12:04:55;;;;;;;;;;;;;;;13.63;27.21;102870.69;5067625;28;20258;-67
2022/03/01 12:07:22;;;;;;;;;;;;;;;12.70;27.45;102870.38;5069650;28;19924;-67
2022/03/01 12:09:57;;;;;;;;;;;;;;;12.89;26.88;102863.81;5053258;28;20039;-69
2022/03/01 12:12:32;;;;;;;;;;;;;;;12.91;27.26;102853.53;5070864;28;19916;-69
2022/03/01 12:14:57;;;;;;;;;;;;;;;12.79;26.31;102851.84;5071439;28;19928;-68
2022/03/01 12:17:23;;;;;;;;;;;;;;;12.18;27.06;102852.75;5051465;28;19917;-69
2022/03/01 12:19:57;;;;;;;;;;;;;;;12.63;27.58;102853.31;5051245;28;20290;-70
2022/03/01 12:22:22;;;;;;;;;;;;;;;12.60;27.51;102847.47;5066873;28;20305;-68
2022/03/01 12:24:48;;;;;;;;;;;;;;;13.08;26.58;102845.53;5056383;28;20050;-68
2022/03/01 12:27:14;;;;;;;;;;;;;;;12.49;27.59;102849.09;5061543;28;20373;-70
2022/03/01 12:29:40;;;;;;;;;;;;;;;12.19;27.86;102842.72;5064876;28;19924;-70
2022/03/01 12:32:07;;;;;;;;;;;;;;;12.60;27.70;102831.97;5051979;28;20353;-68
2022/03/01 12:34:33;;;;;;;;;;;;;;;12.58;27.85;102828.63;5054425;28;19931;-68
2022/03/01 12:37:00;;;;;;;;;;;;;;;12.57;27.78;102842.50;5053068;28;19916;-67
2022/03/01 12:39:27;;;;;;;;;;;;;;;12.20;28.29;102847.91;5049922;28;19956;-68